Time;durP1;ratioP1;P1;durP2;ratioP2;P2;SDS_P1;SDS_P2;PMS_P1;PMS_P2;Temp;Humidity;BMP_temperature;BMP_pressure;BME280_temperature;BME280_humidity;BME280_pressure;Samples;Min_cycle;Max_cycle;Signal;HPM_P1;HPM_P2
2024/03/25 00:00:10;;;;;;;;;;;;;;;8.66;59.04;99118.22;4181960;28;20369;-66
2024/03/25 00:02:11;;;;;;;;;;;;;;;8.28;59.68;99113.91;4185280;28;19923;-65
2024/03/25 00:04:11;;;;;;;;;;;;;;;8.33;59.82;99120.59;4173782;28;19917;-65
2024/03/25 00:06:11;;;;;;;;;;;;;;;8.44;59.63;99117.69;4178871;28;19919;-65
2024/03/25 00:08:12;;;;;;;;;;;;;;;8.39;59.71;99120.81;4181229;28;19920;-65
2024/03/25 00:10:12;;;;;;;;;;;;;;;8.38;59.91;99120.97;4182109;28;20428;-65
2024/03/25 00:12:12;;;;;;;;;;;;;;;8.55;59.40;99122.81;4181055;28;19932;-66
2024/03/25 00:14:12;;;;;;;;;;;;;;;8.46;59.57;99121.03;4174982;28;20368;-65
2024/03/25 00:16:13;;;;;;;;;;;;;;;8.50;59.57;99117.09;4174175;28;19920;-65
2024/03/25 00:18:13;;;;;;;;;;;;;;;8.52;59.55;99114.28;4181322;28;19912;-67
2024/03/25 00:20:15;;;;;;;;;;;;;;;8.43;59.42;99121.34;4181746;28;19947;-66
2024/03/25 00:22:15;;;;;;;;;;;;;;;8.70;58.86;99111.59;4181700;28;19913;-65
2024/03/25 00:24:16;;;;;;;;;;;;;;;8.55;58.90;99116.63;4171696;28;20456;-65
2024/03/25 00:26:17;;;;;;;;;;;;;;;8.66;58.62;99104.91;4168218;28;20328;-66
2024/03/25 00:28:18;;;;;;;;;;;;;;;8.81;58.39;99107.84;4166081;28;19913;-66
2024/03/25 00:30:19;;;;;;;;;;;;;;;8.55;59.03;99113.97;4177308;28;19920;-65
2024/03/25 00:32:19;;;;;;;;;;;;;;;8.64;58.82;99109.56;4181382;28;19916;-67
2024/03/25 00:34:20;;;;;;;;;;;;;;;8.70;58.71;99111.59;4186257;28;19917;-66
2024/03/25 00:36:20;;;;;;;;;;;;;;;8.86;58.50;99101.06;4183084;28;19952;-66
2024/03/25 00:38:20;;;;;;;;;;;;;;;8.45;59.50;99099.91;4181067;28;20298;-66
2024/03/25 00:40:21;;;;;;;;;;;;;;;8.68;59.09;99095.75;4163473;28;20505;-66
2024/03/25 00:42:21;;;;;;;;;;;;;;;8.55;59.10;99098.84;4171235;28;19959;-66
2024/03/25 00:44:21;;;;;;;;;;;;;;;8.51;59.24;99105.44;4181717;28;19923;-66
2024/03/25 00:46:22;;;;;;;;;;;;;;;8.57;59.43;99104.00;4182081;28;20010;-65
2024/03/25 00:48:23;;;;;;;;;;;;;;;8.90;58.29;99096.25;4161158;28;19920;-65
2024/03/25 00:50:23;;;;;;;;;;;;;;;8.53;59.31;99100.81;4179724;28;19913;-66
2024/03/25 00:52:23;;;;;;;;;;;;;;;8.57;59.13;99102.19;4181196;28;20364;-65
2024/03/25 00:54:24;;;;;;;;;;;;;;;8.66;59.22;99110.25;4181208;28;20133;-65
2024/03/25 00:56:24;;;;;;;;;;;;;;;8.69;59.11;99104.59;4174945;28;19924;-65
2024/03/25 00:58:25;;;;;;;;;;;;;;;8.58;59.45;99111.84;4180041;28;19919;-65
2024/03/25 01:00:25;;;;;;;;;;;;;;;8.55;59.50;99112.16;4181591;28;20007;-65
2024/03/25 01:02:27;;;;;;;;;;;;;;;8.33;60.14;99104.59;4182769;28;19932;-66
2024/03/25 01:04:27;;;;;;;;;;;;;;;8.62;59.47;99108.88;4180745;28;19921;-65
2024/03/25 01:06:28;;;;;;;;;;;;;;;8.70;59.19;99111.59;4169792;28;20035;-66
2024/03/25 01:08:28;;;;;;;;;;;;;;;8.47;59.76;99114.75;4178179;28;19932;-65
2024/03/25 01:10:28;;;;;;;;;;;;;;;8.42;59.75;99112.53;4173989;28;19943;-65
2024/03/25 01:12:29;;;;;;;;;;;;;;;8.33;60.04;99109.94;4170220;28;19980;-65
2024/03/25 01:14:29;;;;;;;;;;;;;;;8.19;60.45;99113.97;4176584;28;19920;-66
2024/03/25 01:16:29;;;;;;;;;;;;;;;8.38;60.08;99115.66;4167418;28;19960;-68
2024/03/25 01:18:30;;;;;;;;;;;;;;;8.76;59.13;99108.31;4182307;28;19916;-65
2024/03/25 01:20:30;;;;;;;;;;;;;;;8.58;59.35;99113.66;4165247;28;19920;-65
2024/03/25 01:22:33;;;;;;;;;;;;;;;8.67;59.30;99122.56;4156457;28;19913;-66
2024/03/25 01:24:33;;;;;;;;;;;;;;;8.89;58.76;99115.91;4179952;28;20361;-65
2024/03/25 01:26:39;;;;;;;;;;;;;;;8.38;59.79;99120.97;4175628;28;19928;-67
2024/03/25 01:28:40;;;;;;;;;;;;;;;8.15;60.48;99113.44;4169634;28;19913;-65
2024/03/25 01:30:40;;;;;;;;;;;;;;;8.38;60.15;99120.97;4176596;28;19951;-66
2024/03/25 01:32:41;;;;;;;;;;;;;;;8.14;60.46;99125.06;4173112;28;19916;-66
2024/03/25 01:34:41;;;;;;;;;;;;;;;8.10;60.79;99118.41;4163380;28;20387;-66
2024/03/25 01:36:42;;;;;;;;;;;;;;;8.27;60.23;99111.38;4172069;28;20007;-66
2024/03/25 01:38:43;;;;;;;;;;;;;;;8.21;60.38;99107.53;4173331;28;19913;-66
2024/03/25 01:40:45;;;;;;;;;;;;;;;8.33;60.19;99112.59;4176153;28;19913;-66
2024/03/25 01:42:55;;;;;;;;;;;;;;;8.20;60.58;99108.50;4158241;28;20285;-66
2024/03/25 01:44:55;;;;;;;;;;;;;;;8.31;60.01;99114.59;4174078;28;19916;-67
2024/03/25 01:46:56;;;;;;;;;;;;;;;8.55;59.60;99111.31;4179636;28;20269;-67
2024/03/25 01:48:58;;;;;;;;;;;;;;;8.50;59.68;99105.63;4174113;28;20246;-67
2024/03/25 01:51:00;;;;;;;;;;;;;;;8.12;60.40;99108.44;4178629;28;19917;-66
2024/03/25 01:53:00;;;;;;;;;;;;;;;8.06;60.81;99109.03;4174661;28;20292;-70
2024/03/25 01:55:03;;;;;;;;;;;;;;;8.16;60.55;99109.78;4171611;28;19909;-66
2024/03/25 01:57:04;;;;;;;;;;;;;;;8.26;60.14;99112.41;4181771;28;19916;-66
2024/03/25 01:59:04;;;;;;;;;;;;;;;8.19;60.50;99111.31;4189322;28;19913;-65
2024/03/25 02:01:05;;;;;;;;;;;;;;;8.22;60.67;99114.50;4187853;28;19908;-65
2024/03/25 02:03:05;;;;;;;;;;;;;;;8.14;60.56;99114.44;4157498;28;20356;-67
2024/03/25 02:05:06;;;;;;;;;;;;;;;7.84;61.40;99126.28;4175820;28;20364;-65
2024/03/25 02:07:07;;;;;;;;;;;;;;;8.25;60.57;99124.03;4179715;28;20495;-66
2024/03/25 02:09:12;;;;;;;;;;;;;;;8.20;60.44;99121.81;4176430;28;19927;-66
2024/03/25 02:11:13;;;;;;;;;;;;;;;8.30;60.37;99112.91;4179035;28;20288;-67
2024/03/25 02:13:17;;;;;;;;;;;;;;;8.34;59.99;99114.28;4178975;28;19913;-66
2024/03/25 02:15:18;;;;;;;;;;;;;;;8.52;59.65;99115.13;4166913;28;19952;-66
2024/03/25 02:17:21;;;;;;;;;;;;;;;8.06;60.45;99117.88;4171442;28;19913;-66
2024/03/25 02:19:23;;;;;;;;;;;;;;;8.34;60.22;99114.28;4169521;28;19914;-69
2024/03/25 02:21:23;;;;;;;;;;;;;;;8.23;60.28;99118.00;4179154;28;19913;-67
2024/03/25 02:23:24;;;;;;;;;;;;;;;7.92;61.10;99116.56;4164641;28;19917;-65
2024/03/25 02:25:24;;;;;;;;;;;;;;;8.33;60.32;99112.59;4172277;28;19935;-67
2024/03/25 02:27:25;;;;;;;;;;;;;;;8.00;60.73;99115.78;4170535;28;19935;-66
2024/03/25 02:29:44;;;;;;;;;;;;;;;7.92;61.55;99108.56;4178589;28;20050;-67
2024/03/25 02:31:44;;;;;;;;;;;;;;;7.91;61.25;99114.88;4174901;28;19985;-66
2024/03/25 02:33:45;;;;;;;;;;;;;;;8.03;60.81;99125.31;4177912;28;19909;-66
2024/03/25 02:35:45;;;;;;;;;;;;;;;7.72;61.53;99112.34;4176006;28;19996;-66
2024/03/25 02:37:46;;;;;;;;;;;;;;;7.78;61.73;99117.06;4164600;28;19909;-65
2024/03/25 02:39:46;;;;;;;;;;;;;;;7.73;62.41;99114.03;4178273;28;19919;-65
2024/03/25 02:41:46;;;;;;;;;;;;;;;8.05;60.94;99112.66;4178297;28;19908;-67
2024/03/25 02:43:47;;;;;;;;;;;;;;;7.84;61.07;99116.44;4185229;28;19921;-66
2024/03/25 02:45:47;;;;;;;;;;;;;;;7.71;61.98;99111.50;4183071;28;19939;-66
2024/03/25 02:47:48;;;;;;;;;;;;;;;7.62;62.41;99123.03;4168285;28;19960;-67
2024/03/25 02:49:48;;;;;;;;;;;;;;;7.64;62.58;99129.03;4172612;28;19920;-65
2024/03/25 02:51:49;;;;;;;;;;;;;;;7.52;62.61;99125.75;4176368;28;19920;-66
2024/03/25 02:53:49;;;;;;;;;;;;;;;7.59;62.52;99124.16;4166475;28;19913;-65
2024/03/25 02:55:50;;;;;;;;;;;;;;;7.78;61.99;99122.38;4175991;28;19951;-67
2024/03/25 02:57:50;;;;;;;;;;;;;;;7.53;62.55;99130.09;4166697;28;20028;-65
2024/03/25 02:59:50;;;;;;;;;;;;;;;7.56;62.92;99120.97;4175765;28;19958;-66
2024/03/25 03:01:51;;;;;;;;;;;;;;;7.77;62.48;99126.03;4183976;28;19913;-66
2024/03/25 03:03:52;;;;;;;;;;;;;;;7.65;62.43;99128.06;4188686;28;19931;-67
2024/03/25 03:05:52;;;;;;;;;;;;;;;7.52;62.94;99119.56;4184304;28;19951;-66
2024/03/25 03:07:53;;;;;;;;;;;;;;;7.49;63.11;99126.03;4193540;28;19939;-67
2024/03/25 03:09:54;;;;;;;;;;;;;;;7.65;63.11;99120.06;4183446;28;19913;-68
2024/03/25 03:11:55;;;;;;;;;;;;;;;7.49;63.19;99123.38;4180206;28;19919;-66
2024/03/25 03:13:55;;;;;;;;;;;;;;;7.77;62.58;99120.69;4179105;28;19913;-66
2024/03/25 03:15:56;;;;;;;;;;;;;;;7.44;63.05;99123.81;4179707;28;20063;-66
2024/03/25 03:17:56;;;;;;;;;;;;;;;7.67;62.85;99118.09;4179642;28;19966;-65
2024/03/25 03:19:56;;;;;;;;;;;;;;;7.61;62.63;99121.34;4181616;28;20004;-68
2024/03/25 03:21:57;;;;;;;;;;;;;;;7.67;62.62;99122.56;4197447;28;19957;-66
2024/03/25 03:23:57;;;;;;;;;;;;;;;7.71;62.19;99121.31;4187493;28;20015;-66
2024/03/25 03:25:59;;;;;;;;;;;;;;;7.64;62.43;99110.41;4180085;28;19923;-66
2024/03/25 03:27:59;;;;;;;;;;;;;;;7.52;62.81;99115.09;4179350;28;19954;-66
2024/03/25 03:30:00;;;;;;;;;;;;;;;7.70;62.36;99112.47;4170575;28;19947;-65
2024/03/25 03:32:00;;;;;;;;;;;;;;;7.65;62.48;99114.75;4179115;28;19920;-66
2024/03/25 03:34:00;;;;;;;;;;;;;;;7.71;62.20;99110.66;4171366;28;19917;-67
2024/03/25 03:36:01;;;;;;;;;;;;;;;7.63;62.30;99104.28;4180262;28;19912;-65
2024/03/25 03:38:02;;;;;;;;;;;;;;;7.47;62.83;99104.06;4182103;28;19952;-67
2024/03/25 03:40:08;;;;;;;;;;;;;;;7.65;62.47;99104.13;4172853;28;20455;-66
2024/03/25 03:42:08;;;;;;;;;;;;;;;7.45;63.05;99111.38;4177476;28;19919;-66
2024/03/25 03:44:09;;;;;;;;;;;;;;;7.48;63.04;99116.38;4181905;28;19917;-66
2024/03/25 03:46:10;;;;;;;;;;;;;;;7.27;63.39;99116.63;4157337;28;19958;-66
2024/03/25 03:48:13;;;;;;;;;;;;;;;7.32;63.67;99111.72;4158972;28;19971;-66
2024/03/25 03:50:13;;;;;;;;;;;;;;;7.26;63.70;99112.28;4175540;28;20456;-66
2024/03/25 03:52:14;;;;;;;;;;;;;;;7.34;63.73;99109.72;4177156;28;19955;-65
2024/03/25 03:54:14;;;;;;;;;;;;;;;7.38;63.42;99110.25;4180322;28;19919;-66
2024/03/25 03:56:14;;;;;;;;;;;;;;;7.28;63.64;99116.47;4182043;28;20011;-65
2024/03/25 03:58:15;;;;;;;;;;;;;;;7.25;63.65;99110.59;4181034;28;20004;-66
2024/03/25 04:00:15;;;;;;;;;;;;;;;7.17;64.07;99122.00;4173048;28;19935;-65
2024/03/25 04:02:16;;;;;;;;;;;;;;;7.16;64.26;99115.81;4187644;28;19913;-66
2024/03/25 04:04:16;;;;;;;;;;;;;;;7.11;64.32;99127.88;4172758;28;19917;-66
2024/03/25 04:06:17;;;;;;;;;;;;;;;7.08;64.45;99120.19;4172111;28;20007;-66
2024/03/25 04:08:17;;;;;;;;;;;;;;;7.06;64.52;99122.16;4174304;28;19924;-66
2024/03/25 04:10:17;;;;;;;;;;;;;;;7.02;64.65;99127.75;4153981;28;19913;-66
2024/03/25 04:12:19;;;;;;;;;;;;;;;6.90;64.87;99125.41;4169254;28;19995;-67
2024/03/25 04:14:19;;;;;;;;;;;;;;;6.95;64.87;99126.66;4170164;28;19924;-66
2024/03/25 04:16:30;;;;;;;;;;;;;;;6.93;64.87;99131.28;4171794;28;20331;-66
2024/03/25 04:18:33;;;;;;;;;;;;;;;6.82;65.26;99126.97;4181037;28;19913;-67
2024/03/25 04:20:40;;;;;;;;;;;;;;;6.86;65.40;99135.50;4155399;28;19975;-67
2024/03/25 04:22:43;;;;;;;;;;;;;;;6.89;65.32;99132.56;4173796;28;19938;-66
2024/03/25 04:24:44;;;;;;;;;;;;;;;7.00;65.25;99140.34;4173143;28;20055;-66
2024/03/25 04:26:48;;;;;;;;;;;;;;;6.97;65.12;99140.66;4172868;28;20361;-65
2024/03/25 04:28:49;;;;;;;;;;;;;;;7.02;64.91;99126.94;4181522;28;20003;-65
2024/03/25 04:30:53;;;;;;;;;;;;;;;6.97;64.89;99130.03;4182146;28;19915;-67
2024/03/25 04:32:54;;;;;;;;;;;;;;;7.03;64.74;99129.44;4182125;28;19974;-66
2024/03/25 04:34:54;;;;;;;;;;;;;;;7.04;64.49;99130.25;4181885;28;19908;-67
2024/03/25 04:36:54;;;;;;;;;;;;;;;7.01;64.44;99131.38;4179410;28;19923;-66
2024/03/25 04:38:55;;;;;;;;;;;;;;;7.02;64.49;99130.41;4178173;28;19956;-66
2024/03/25 04:40:55;;;;;;;;;;;;;;;7.02;64.34;99119.78;4168009;28;19912;-66
2024/03/25 04:42:55;;;;;;;;;;;;;;;7.07;64.18;99118.53;4181244;28;19913;-66
2024/03/25 04:44:57;;;;;;;;;;;;;;;7.08;64.23;99117.53;4182056;28;19935;-67
2024/03/25 04:46:57;;;;;;;;;;;;;;;7.09;64.16;99122.69;4164852;28;19920;-67
2024/03/25 04:48:57;;;;;;;;;;;;;;;7.05;64.04;99129.28;4158590;28;20019;-66
2024/03/25 04:50:58;;;;;;;;;;;;;;;6.96;64.37;99128.34;4178615;28;20002;-66
2024/03/25 04:52:58;;;;;;;;;;;;;;;6.97;64.24;99122.03;4187171;28;20183;-68
2024/03/25 04:54:58;;;;;;;;;;;;;;;7.03;64.15;99132.09;4185960;28;19940;-66
2024/03/25 04:56:59;;;;;;;;;;;;;;;6.96;64.24;99131.00;4182988;28;19912;-65
2024/03/25 04:59:01;;;;;;;;;;;;;;;6.95;64.46;99129.31;4181003;28;19909;-66
2024/03/25 05:01:01;;;;;;;;;;;;;;;7.03;64.21;99128.59;4181631;28;20365;-66
2024/03/25 05:03:02;;;;;;;;;;;;;;;6.93;64.49;99133.94;4177366;28;19919;-67
2024/03/25 05:05:03;;;;;;;;;;;;;;;6.90;64.42;99146.66;4164377;28;20361;-67
2024/03/25 05:07:03;;;;;;;;;;;;;;;7.08;64.12;99138.81;4164541;28;19935;-67
2024/03/25 05:09:04;;;;;;;;;;;;;;;6.87;64.43;99134.50;4153228;28;20277;-66
2024/03/25 05:11:06;;;;;;;;;;;;;;;6.92;64.57;99142.88;4163176;28;19909;-67
2024/03/25 05:13:06;;;;;;;;;;;;;;;6.92;64.39;99142.88;4159646;28;19916;-67
2024/03/25 05:15:06;;;;;;;;;;;;;;;6.91;64.56;99146.50;4178508;28;19915;-66
2024/03/25 05:17:09;;;;;;;;;;;;;;;6.92;64.67;99147.38;4162727;28;20015;-66
2024/03/25 05:19:09;;;;;;;;;;;;;;;6.91;64.68;99146.50;4162657;28;19972;-67
2024/03/25 05:21:09;;;;;;;;;;;;;;;6.95;64.54;99141.75;4180802;28;19913;-67
2024/03/25 05:23:10;;;;;;;;;;;;;;;7.15;64.13;99137.22;4180235;28;20388;-66
2024/03/25 05:25:10;;;;;;;;;;;;;;;7.25;63.83;99142.50;4180639;28;20707;-66
2024/03/25 05:27:10;;;;;;;;;;;;;;;7.21;63.60;99147.28;4162269;28;19913;-66
2024/03/25 05:29:11;;;;;;;;;;;;;;;7.05;64.15;99147.06;4180724;28;19913;-67
2024/03/25 05:31:11;;;;;;;;;;;;;;;7.05;64.09;99152.38;4181186;28;19913;-66
2024/03/25 05:33:11;;;;;;;;;;;;;;;7.02;64.37;99153.50;4162261;28;19917;-67
2024/03/25 05:35:12;;;;;;;;;;;;;;;7.11;64.29;99157.09;4162743;28;19916;-66
2024/03/25 05:37:12;;;;;;;;;;;;;;;7.11;64.08;99159.75;4180496;28;20475;-66
2024/03/25 05:39:13;;;;;;;;;;;;;;;7.23;63.85;99155.94;4179579;28;19909;-67
2024/03/25 05:41:13;;;;;;;;;;;;;;;7.23;63.81;99161.28;4180920;28;19944;-66
2024/03/25 05:43:14;;;;;;;;;;;;;;;7.15;63.84;99161.16;4163148;28;19913;-66
2024/03/25 05:45:15;;;;;;;;;;;;;;;7.17;63.84;99161.84;4180691;28;19931;-67
2024/03/25 05:47:16;;;;;;;;;;;;;;;7.11;63.84;99163.28;4180819;28;19908;-67
2024/03/25 05:49:16;;;;;;;;;;;;;;;7.14;63.79;99162.13;4180731;28;19916;-67
2024/03/25 05:51:16;;;;;;;;;;;;;;;7.12;63.95;99161.44;4180976;28;19948;-66
2024/03/25 05:53:17;;;;;;;;;;;;;;;7.08;63.97;99165.38;4178461;28;20612;-66
2024/03/25 05:55:17;;;;;;;;;;;;;;;6.99;64.36;99159.91;4177509;28;19908;-66
2024/03/25 05:57:17;;;;;;;;;;;;;;;6.96;64.56;99168.19;4180188;28;19909;-66
2024/03/25 05:59:18;;;;;;;;;;;;;;;7.02;64.45;99162.31;4179845;28;19909;-67
2024/03/25 06:01:18;;;;;;;;;;;;;;;7.05;64.51;99165.66;4180535;28;19916;-66
2024/03/25 06:03:19;;;;;;;;;;;;;;;7.06;64.61;99162.84;4180065;28;19913;-66
2024/03/25 06:05:20;;;;;;;;;;;;;;;7.13;64.31;99160.47;4183567;28;19916;-66
2024/03/25 06:07:20;;;;;;;;;;;;;;;6.98;64.65;99163.59;4184103;28;19913;-66
2024/03/25 06:09:21;;;;;;;;;;;;;;;6.91;65.06;99161.63;4195666;28;19909;-71
2024/03/25 06:11:21;;;;;;;;;;;;;;;7.05;64.98;99166.47;4189470;28;20014;-67
2024/03/25 06:13:22;;;;;;;;;;;;;;;7.07;64.69;99167.19;4162883;28;19921;-68
2024/03/25 06:15:23;;;;;;;;;;;;;;;7.19;64.49;99159.88;4180972;28;19966;-66
2024/03/25 06:17:23;;;;;;;;;;;;;;;7.18;64.66;99158.19;4178905;28;19970;-67
2024/03/25 06:19:24;;;;;;;;;;;;;;;7.17;64.70;99167.19;4185124;28;19908;-69
2024/03/25 06:21:25;;;;;;;;;;;;;;;7.05;64.80;99177.13;4192123;28;19919;-67
2024/03/25 06:23:28;;;;;;;;;;;;;;;7.14;64.66;99176.25;4167498;28;19917;-67
2024/03/25 06:25:30;;;;;;;;;;;;;;;7.22;64.52;99172.88;4193967;28;19912;-67
2024/03/25 06:27:31;;;;;;;;;;;;;;;7.10;64.73;99185.50;4193423;28;20003;-67
2024/03/25 06:29:35;;;;;;;;;;;;;;;7.09;64.82;99180.31;4194278;28;20545;-72
2024/03/25 06:36:13;;;;;;;;;;;;;;;7.40;64.11;99174.78;4180438;28;20008;-67
2024/03/25 06:38:13;;;;;;;;;;;;;;;7.40;64.19;99183.63;4179205;28;19917;-67
2024/03/25 06:40:14;;;;;;;;;;;;;;;7.53;63.73;99183.28;4179803;28;19920;-66
2024/03/25 06:42:15;;;;;;;;;;;;;;;7.38;64.17;99171.41;4162288;28;19909;-66
2024/03/25 06:44:15;;;;;;;;;;;;;;;7.26;64.32;99176.94;4181018;28;19916;-67
2024/03/25 06:46:15;;;;;;;;;;;;;;;7.34;64.30;99179.72;4179483;28;20312;-67
2024/03/25 06:48:15;;;;;;;;;;;;;;;7.61;63.75;99172.75;4179516;28;19909;-68
2024/03/25 06:50:16;;;;;;;;;;;;;;;7.43;64.06;99166.53;4180165;28;19909;-68
2024/03/25 06:52:16;;;;;;;;;;;;;;;7.56;63.88;99172.31;4179651;28;20003;-69
2024/03/25 06:54:17;;;;;;;;;;;;;;;7.61;63.61;99169.22;4179773;28;19970;-67
2024/03/25 06:56:18;;;;;;;;;;;;;;;7.88;62.94;99170.22;4179339;28;20284;-68
2024/03/25 06:58:19;;;;;;;;;;;;;;;7.88;62.57;99173.72;4179200;28;19908;-67
2024/03/25 07:00:22;;;;;;;;;;;;;;;7.87;62.63;99172.03;4180019;28;19940;-67
2024/03/25 07:02:22;;;;;;;;;;;;;;;7.83;62.93;99178.66;4179487;28;19909;-67
2024/03/25 07:04:23;;;;;;;;;;;;;;;7.78;63.08;99176.44;4179529;28;19935;-67
2024/03/25 07:06:25;;;;;;;;;;;;;;;7.90;62.55;99177.06;4179687;28;20595;-67
2024/03/25 07:08:25;;;;;;;;;;;;;;;8.10;62.23;99174.28;4179044;28;19917;-67
2024/03/25 07:10:26;;;;;;;;;;;;;;;8.03;62.46;99183.88;4180284;28;20349;-67
2024/03/25 07:12:26;;;;;;;;;;;;;;;8.14;61.73;99174.84;4179875;28;19912;-67
2024/03/25 07:14:26;;;;;;;;;;;;;;;8.03;62.09;99175.91;4179020;28;20280;-66
2024/03/25 07:16:27;;;;;;;;;;;;;;;7.71;62.80;99180.66;4177364;28;19909;-67
2024/03/25 07:18:28;;;;;;;;;;;;;;;7.95;62.14;99180.13;4177797;28;19924;-67
2024/03/25 07:20:28;;;;;;;;;;;;;;;8.19;61.54;99184.03;4183570;28;19968;-67
2024/03/25 07:22:29;;;;;;;;;;;;;;;8.43;60.62;99187.94;4183612;28;20489;-67
2024/03/25 07:24:29;;;;;;;;;;;;;;;8.55;60.31;99180.56;4182734;28;19919;-67
2024/03/25 07:26:30;;;;;;;;;;;;;;;8.38;60.48;99185.72;4182700;28;19920;-65
2024/03/25 07:28:30;;;;;;;;;;;;;;;8.51;60.14;99182.69;4182761;28;19917;-66
2024/03/25 07:30:30;;;;;;;;;;;;;;;8.26;60.81;99182.44;4180581;28;19919;-67
2024/03/25 07:32:31;;;;;;;;;;;;;;;8.47;60.07;99180.47;4180241;28;19909;-67
2024/03/25 07:34:31;;;;;;;;;;;;;;;8.65;59.82;99178.66;4179734;28;19924;-67
2024/03/25 07:36:35;;;;;;;;;;;;;;;8.62;59.28;99170.13;4179846;28;19931;-66
2024/03/25 07:38:35;;;;;;;;;;;;;;;8.43;58.51;99177.28;4178909;28;19912;-67
2024/03/25 07:40:35;;;;;;;;;;;;;;;8.79;57.81;99185.28;4178638;28;19932;-66
2024/03/25 07:42:36;;;;;;;;;;;;;;;8.72;58.04;99168.22;4178562;28;19913;-67
2024/03/25 07:44:36;;;;;;;;;;;;;;;8.56;58.12;99175.09;4179041;28;19963;-66
2024/03/25 07:46:36;;;;;;;;;;;;;;;8.98;57.20;99165.59;4179082;28;20318;-66
2024/03/25 07:48:37;;;;;;;;;;;;;;;8.79;57.41;99171.94;4179008;28;19915;-66
2024/03/25 07:50:37;;;;;;;;;;;;;;;8.95;57.44;99167.75;4181928;28;19999;-67
2024/03/25 07:52:40;;;;;;;;;;;;;;;8.83;56.91;99175.16;4185648;28;19908;-67
2024/03/25 07:54:42;;;;;;;;;;;;;;;8.93;56.92;99167.06;4191592;28;19948;-68
2024/03/25 07:56:43;;;;;;;;;;;;;;;9.03;55.76;99175.78;4189597;28;20393;-68
2024/03/25 07:58:43;;;;;;;;;;;;;;;9.35;53.57;99169.00;4190992;28;19935;-67
2024/03/25 08:00:48;;;;;;;;;;;;;;;9.42;51.25;99169.19;4194056;28;19897;-68
2024/03/25 08:02:55;;;;;;;;;;;;;;;9.58;52.90;99173.78;4202241;28;19915;-70
2024/03/25 08:04:56;;;;;;;;;;;;;;;9.77;52.42;99173.53;4189126;28;19909;-66
2024/03/25 08:06:56;;;;;;;;;;;;;;;9.88;52.15;99168.88;4184777;28;20431;-67
2024/03/25 08:08:57;;;;;;;;;;;;;;;10.16;51.27;99161.44;4182986;28;19916;-67
2024/03/25 08:10:57;;;;;;;;;;;;;;;10.30;50.80;99163.50;4182093;28;20369;-66
2024/03/25 08:12:57;;;;;;;;;;;;;;;10.75;48.41;99155.19;4186324;28;19913;-68
2024/03/25 08:14:58;;;;;;;;;;;;;;;11.12;48.11;99156.47;4188494;28;20003;-66
2024/03/25 08:16:58;;;;;;;;;;;;;;;11.24;47.06;99159.66;4170289;28;19908;-66
2024/03/25 08:18:58;;;;;;;;;;;;;;;11.49;45.78;99156.91;4183665;28;19909;-67
2024/03/25 08:20:59;;;;;;;;;;;;;;;11.89;44.52;99148.84;4183914;28;20004;-67
2024/03/25 08:22:59;;;;;;;;;;;;;;;11.62;45.02;99146.47;4182837;28;20288;-67
2024/03/25 08:25:00;;;;;;;;;;;;;;;11.37;43.88;99159.94;4183049;28;20015;-67
2024/03/25 08:27:00;;;;;;;;;;;;;;;11.60;43.19;99147.66;4182171;28;19913;-67
2024/03/25 08:29:00;;;;;;;;;;;;;;;12.01;40.72;99150.16;4181714;28;20368;-66
2024/03/25 08:31:01;;;;;;;;;;;;;;;11.86;40.95;99144.69;4181876;28;19974;-67
2024/03/25 08:33:02;;;;;;;;;;;;;;;12.47;38.89;99142.16;4182067;28;19909;-67
2024/03/25 08:35:03;;;;;;;;;;;;;;;12.62;38.58;99136.00;4181353;28;19997;-67
2024/03/25 08:37:04;;;;;;;;;;;;;;;13.07;38.92;99130.75;4181423;28;19997;-67
2024/03/25 08:39:04;;;;;;;;;;;;;;;12.97;39.14;99128.34;4181456;28;19915;-67
2024/03/25 08:41:04;;;;;;;;;;;;;;;12.62;40.39;99136.84;4183439;28;19913;-67
2024/03/25 08:43:05;;;;;;;;;;;;;;;13.10;39.86;99136.56;4184216;28;19909;-67
2024/03/25 08:45:06;;;;;;;;;;;;;;;13.27;39.00;99125.69;4183093;28;19913;-66
2024/03/25 08:47:06;;;;;;;;;;;;;;;13.18;38.00;99124.94;4182508;28;19930;-66
2024/03/25 08:49:06;;;;;;;;;;;;;;;12.59;38.75;99131.84;4183572;28;19916;-67
2024/03/25 08:51:07;;;;;;;;;;;;;;;12.54;38.59;99131.56;4185176;28;20304;-66
2024/03/25 08:53:08;;;;;;;;;;;;;;;13.29;37.81;99125.50;4184026;28;19908;-67
2024/03/25 08:55:09;;;;;;;;;;;;;;;13.52;36.81;99130.78;4181607;28;19954;-66
2024/03/25 08:57:09;;;;;;;;;;;;;;;13.86;36.08;99126.66;4181653;28;20275;-66
2024/03/25 08:59:10;;;;;;;;;;;;;;;13.79;35.97;99121.19;4163445;28;19988;-66
2024/03/25 09:01:14;;;;;;;;;;;;;;;14.03;36.72;99127.28;4181141;28;20333;-66
2024/03/25 09:03:15;;;;;;;;;;;;;;;13.98;35.95;99124.34;4181886;28;19914;-66
2024/03/25 09:05:18;;;;;;;;;;;;;;;14.23;35.58;99114.03;4181175;28;19909;-67
2024/03/25 09:07:18;;;;;;;;;;;;;;;13.48;37.17;99116.91;4181269;28;19954;-66
2024/03/25 09:11:37;;;;;;;;;;;;;;;13.23;38.03;99110.94;4178094;28;19920;-66
2024/03/25 09:13:40;;;;;;;;;;;;;;;13.25;38.55;99109.75;4183775;28;19908;-66
2024/03/25 09:15:40;;;;;;;;;;;;;;;13.83;37.46;99105.56;4188755;28;19920;-68
2024/03/25 09:17:40;;;;;;;;;;;;;;;14.00;35.64;99100.75;4173342;28;19913;-69
2024/03/25 09:19:41;;;;;;;;;;;;;;;13.80;36.14;99101.38;4194486;28;19908;-68
2024/03/25 09:21:42;;;;;;;;;;;;;;;14.30;34.92;99096.13;4194367;28;19908;-68
2024/03/25 09:23:42;;;;;;;;;;;;;;;14.42;35.23;99091.06;4178363;28;19939;-68
2024/03/25 09:25:53;;;;;;;;;;;;;;;14.48;35.56;99086.78;4195888;28;19955;-68
2024/03/25 09:27:53;;;;;;;;;;;;;;;14.00;35.69;99095.41;4183792;28;19905;-67
2024/03/25 09:29:54;;;;;;;;;;;;;;;14.11;35.62;99094.06;4196523;28;19915;-73
2024/03/25 09:31:54;;;;;;;;;;;;;;;13.82;36.29;99093.16;4177972;28;20008;-69
2024/03/25 09:33:55;;;;;;;;;;;;;;;14.56;35.18;99081.25;4192068;28;19995;-67
2024/03/25 09:35:56;;;;;;;;;;;;;;;14.69;34.83;99069.78;4192175;28;19948;-72
2024/03/25 09:37:57;;;;;;;;;;;;;;;15.28;34.08;99070.38;4191603;28;19915;-66
2024/03/25 09:39:58;;;;;;;;;;;;;;;15.19;35.09;99066.19;4195134;28;19909;-73
2024/03/25 09:42:01;;;;;;;;;;;;;;;15.07;34.69;99068.59;4190593;28;19939;-66
2024/03/25 09:44:05;;;;;;;;;;;;;;;14.34;35.98;99067.00;4190610;28;19939;-66
2024/03/25 09:46:06;;;;;;;;;;;;;;;14.67;35.46;99058.41;4190011;28;19908;-67
2024/03/25 09:48:07;;;;;;;;;;;;;;;14.40;35.98;99060.84;4192626;28;19909;-66
2024/03/25 09:50:08;;;;;;;;;;;;;;;15.15;35.17;99051.44;4193657;28;19909;-68
2024/03/25 09:52:08;;;;;;;;;;;;;;;15.09;34.41;99053.91;4197732;28;19909;-67
2024/03/25 09:54:09;;;;;;;;;;;;;;;14.88;34.69;99044.03;4193304;28;19909;-69
2024/03/25 09:56:10;;;;;;;;;;;;;;;14.74;34.96;99040.44;4189815;28;19913;-67
2024/03/25 09:58:11;;;;;;;;;;;;;;;14.03;35.93;99043.97;4179837;28;20280;-66
2024/03/25 10:00:12;;;;;;;;;;;;;;;15.02;34.81;99034.19;4180858;28;20388;-65
2024/03/25 10:02:12;;;;;;;;;;;;;;;15.43;33.82;99024.47;4162579;28;19920;-67
2024/03/25 10:04:15;;;;;;;;;;;;;;;14.71;33.83;99021.16;4180208;28;19909;-66
2024/03/25 10:06:15;;;;;;;;;;;;;;;15.14;33.29;99026.41;4180466;28;19909;-67
2024/03/25 10:08:21;;;;;;;;;;;;;;;15.38;33.49;99017.00;4179282;28;19917;-67
2024/03/25 10:10:22;;;;;;;;;;;;;;;15.81;32.14;99005.09;4179779;28;19916;-65
2024/03/25 10:12:22;;;;;;;;;;;;;;;15.56;32.39;99013.72;4179478;28;19909;-66
2024/03/25 10:14:22;;;;;;;;;;;;;;;15.71;32.32;99015.44;4179430;28;19909;-66
2024/03/25 10:16:23;;;;;;;;;;;;;;;15.59;32.21;99013.31;4179906;28;19968;-67
2024/03/25 10:18:23;;;;;;;;;;;;;;;16.21;31.10;99009.72;4179484;28;19940;-67
2024/03/25 10:20:25;;;;;;;;;;;;;;;15.64;30.73;99010.03;4161493;28;19909;-66
2024/03/25 10:22:25;;;;;;;;;;;;;;;15.80;30.68;98997.19;4179331;28;19991;-67
2024/03/25 10:24:26;;;;;;;;;;;;;;;15.60;30.82;99000.66;4179040;28;19952;-66
2024/03/25 10:26:31;;;;;;;;;;;;;;;15.51;31.32;98991.97;4179360;28;19909;-67
2024/03/25 10:28:32;;;;;;;;;;;;;;;16.34;30.39;98988.13;4178695;28;20470;-69
2024/03/25 10:30:32;;;;;;;;;;;;;;;16.57;29.56;98983.38;4178380;28;19913;-67
2024/03/25 10:32:32;;;;;;;;;;;;;;;16.35;29.57;98987.09;4161501;28;19909;-65
2024/03/25 10:34:33;;;;;;;;;;;;;;;15.93;29.80;98980.25;4179678;28;19983;-65
2024/03/25 10:36:33;;;;;;;;;;;;;;;16.08;30.09;98972.81;4180067;28;19999;-66
2024/03/25 10:38:34;;;;;;;;;;;;;;;16.64;30.00;98976.09;4179325;28;20007;-67
2024/03/25 10:40:37;;;;;;;;;;;;;;;17.21;29.83;98970.13;4179808;28;20408;-66
2024/03/25 10:42:39;;;;;;;;;;;;;;;17.31;28.47;98976.72;4179410;28;19935;-67